sensor_id;sensor_type;location;lat;lon;timestamp;temperature;humidity
22319;DHT22;11327;52.334;9.506;2023-09-19T00:02:08;17.00;99.90
22319;DHT22;11327;52.334;9.506;2023-09-19T00:05:33;17.00;99.90
22319;DHT22;11327;52.334;9.506;2023-09-19T00:08:52;17.00;99.90
22319;DHT22;11327;52.334;9.506;2023-09-19T00:12:15;17.00;99.90
22319;DHT22;11327;52.334;9.506;2023-09-19T00:15:41;17.00;99.90
22319;DHT22;11327;52.334;9.506;2023-09-19T00:19:02;17.00;99.90
22319;DHT22;11327;52.334;9.506;2023-09-19T00:22:23;17.00;99.90
22319;DHT22;11327;52.334;9.506;2023-09-19T00:25:46;17.10;99.90
22319;DHT22;11327;52.334;9.506;2023-09-19T00:29:06;17.00;99.90
22319;DHT22;11327;52.334;9.506;2023-09-19T00:32:29;17.00;99.90
22319;DHT22;11327;52.334;9.506;2023-09-19T00:35:52;17.00;99.90
22319;DHT22;11327;52.334;9.506;2023-09-19T00:39:13;17.00;99.90
22319;DHT22;11327;52.334;9.506;2023-09-19T00:42:34;17.00;99.90
22319;DHT22;11327;52.334;9.506;2023-09-19T00:45:57;17.00;99.90
22319;DHT22;11327;52.334;9.506;2023-09-19T00:49:17;17.00;99.90
22319;DHT22;11327;52.334;9.506;2023-09-19T00:52:42;17.00;99.90
22319;DHT22;11327;52.334;9.506;2023-09-19T00:56:03;17.00;99.90
22319;DHT22;11327;52.334;9.506;2023-09-19T00:59:27;16.90;99.90
22319;DHT22;11327;52.334;9.506;2023-09-19T01:02:49;17.00;99.90
22319;DHT22;11327;52.334;9.506;2023-09-19T01:06:09;17.00;99.90
22319;DHT22;11327;52.334;9.506;2023-09-19T01:09:30;16.90;99.90
22319;DHT22;11327;52.334;9.506;2023-09-19T01:13:29;16.90;99.90
22319;DHT22;11327;52.334;9.506;2023-09-19T01:31:13;16.90;99.90
22319;DHT22;11327;52.334;9.506;2023-09-19T01:34:56;16.90;99.90
22319;DHT22;11327;52.334;9.506;2023-09-19T01:38:14;16.90;99.90
22319;DHT22;11327;52.334;9.506;2023-09-19T01:41:58;16.90;99.90
22319;DHT22;11327;52.334;9.506;2023-09-19T01:45:26;16.90;99.90
22319;DHT22;11327;52.334;9.506;2023-09-19T01:49:15;16.80;99.90
22319;DHT22;11327;52.334;9.506;2023-09-19T01:52:36;16.80;99.90
22319;DHT22;11327;52.334;9.506;2023-09-19T01:55:58;16.80;99.90
22319;DHT22;11327;52.334;9.506;2023-09-19T01:59:24;16.80;99.90
22319;DHT22;11327;52.334;9.506;2023-09-19T02:02:48;16.80;99.90
22319;DHT22;11327;52.334;9.506;2023-09-19T02:06:14;16.80;99.90
22319;DHT22;11327;52.334;9.506;2023-09-19T02:09:36;16.80;99.90
22319;DHT22;11327;52.334;9.506;2023-09-19T02:12:58;16.70;99.90
22319;DHT22;11327;52.334;9.506;2023-09-19T02:16:20;16.70;99.90
22319;DHT22;11327;52.334;9.506;2023-09-19T02:19:41;16.90;99.90
22319;DHT22;11327;52.334;9.506;2023-09-19T02:23:02;16.70;99.90
22319;DHT22;11327;52.334;9.506;2023-09-19T02:26:23;16.60;99.90
22319;DHT22;11327;52.334;9.506;2023-09-19T02:29:44;16.70;99.90
22319;DHT22;11327;52.334;9.506;2023-09-19T02:33:04;16.60;99.90
22319;DHT22;11327;52.334;9.506;2023-09-19T02:36:26;16.60;99.90
22319;DHT22;11327;52.334;9.506;2023-09-19T02:39:46;16.60;99.90
22319;DHT22;11327;52.334;9.506;2023-09-19T02:43:07;16.60;99.90
22319;DHT22;11327;52.334;9.506;2023-09-19T02:46:29;16.50;99.90
22319;DHT22;11327;52.334;9.506;2023-09-19T02:49:50;16.60;99.90
22319;DHT22;11327;52.334;9.506;2023-09-19T02:53:11;16.50;99.90
22319;DHT22;11327;52.334;9.506;2023-09-19T02:56:33;16.50;99.90
22319;DHT22;11327;52.334;9.506;2023-09-19T02:59:56;16.40;99.90
22319;DHT22;11327;52.334;9.506;2023-09-19T03:03:17;16.40;99.90
22319;DHT22;11327;52.334;9.506;2023-09-19T03:06:38;16.40;99.90
22319;DHT22;11327;52.334;9.506;2023-09-19T03:10:00;16.30;99.90
22319;DHT22;11327;52.334;9.506;2023-09-19T03:13:21;16.30;99.90
22319;DHT22;11327;52.334;9.506;2023-09-19T03:16:42;16.30;99.90
22319;DHT22;11327;52.334;9.506;2023-09-19T03:20:05;16.30;99.90
22319;DHT22;11327;52.334;9.506;2023-09-19T03:23:29;16.20;99.90
22319;DHT22;11327;52.334;9.506;2023-09-19T03:26:49;16.20;99.90
22319;DHT22;11327;52.334;9.506;2023-09-19T03:30:11;16.20;99.90
22319;DHT22;11327;52.334;9.506;2023-09-19T03:33:33;16.20;99.90
22319;DHT22;11327;52.334;9.506;2023-09-19T03:36:54;16.10;99.90
22319;DHT22;11327;52.334;9.506;2023-09-19T03:40:16;16.10;99.90
22319;DHT22;11327;52.334;9.506;2023-09-19T03:43:37;16.20;99.90
22319;DHT22;11327;52.334;9.506;2023-09-19T03:46:58;16.20;99.90
22319;DHT22;11327;52.334;9.506;2023-09-19T03:50:19;16.20;99.90
22319;DHT22;11327;52.334;9.506;2023-09-19T03:53:39;16.20;99.90
22319;DHT22;11327;52.334;9.506;2023-09-19T03:57:00;16.10;99.90
22319;DHT22;11327;52.334;9.506;2023-09-19T04:00:21;16.10;99.90
22319;DHT22;11327;52.334;9.506;2023-09-19T04:03:44;16.10;99.90
22319;DHT22;11327;52.334;9.506;2023-09-19T04:07:08;16.10;99.90
22319;DHT22;11327;52.334;9.506;2023-09-19T04:10:28;16.00;99.90
22319;DHT22;11327;52.334;9.506;2023-09-19T04:13:49;16.00;99.90
22319;DHT22;11327;52.334;9.506;2023-09-19T04:17:10;16.00;99.90
22319;DHT22;11327;52.334;9.506;2023-09-19T04:20:31;15.90;99.90
22319;DHT22;11327;52.334;9.506;2023-09-19T04:23:52;16.00;99.90
22319;DHT22;11327;52.334;9.506;2023-09-19T04:27:13;15.90;99.90
22319;DHT22;11327;52.334;9.506;2023-09-19T04:30:35;15.90;99.90
22319;DHT22;11327;52.334;9.506;2023-09-19T04:33:56;15.90;99.90
22319;DHT22;11327;52.334;9.506;2023-09-19T04:37:17;15.80;99.90
22319;DHT22;11327;52.334;9.506;2023-09-19T04:40:38;15.80;99.90
22319;DHT22;11327;52.334;9.506;2023-09-19T04:44:00;15.80;99.90
22319;DHT22;11327;52.334;9.506;2023-09-19T04:47:21;15.80;99.90
22319;DHT22;11327;52.334;9.506;2023-09-19T04:50:42;15.80;99.90
22319;DHT22;11327;52.334;9.506;2023-09-19T04:54:04;15.80;99.90
22319;DHT22;11327;52.334;9.506;2023-09-19T04:57:25;15.80;99.90
22319;DHT22;11327;52.334;9.506;2023-09-19T05:00:46;15.70;99.90
22319;DHT22;11327;52.334;9.506;2023-09-19T05:04:07;15.70;99.90
22319;DHT22;11327;52.334;9.506;2023-09-19T05:07:27;15.80;99.90
22319;DHT22;11327;52.334;9.506;2023-09-19T05:10:48;15.70;99.90
22319;DHT22;11327;52.334;9.506;2023-09-19T05:14:09;15.70;99.90
22319;DHT22;11327;52.334;9.506;2023-09-19T05:17:30;15.70;99.90
22319;DHT22;11327;52.334;9.506;2023-09-19T05:20:51;15.70;99.90
22319;DHT22;11327;52.334;9.506;2023-09-19T05:24:14;15.70;99.90
22319;DHT22;11327;52.334;9.506;2023-09-19T05:27:37;15.60;99.90
22319;DHT22;11327;52.334;9.506;2023-09-19T05:31:02;15.60;99.90
22319;DHT22;11327;52.334;9.506;2023-09-19T05:34:23;15.60;99.90
22319;DHT22;11327;52.334;9.506;2023-09-19T05:37:45;15.50;99.90
22319;DHT22;11327;52.334;9.506;2023-09-19T05:41:06;15.50;99.90
22319;DHT22;11327;52.334;9.506;2023-09-19T05:44:28;15.50;99.90
22319;DHT22;11327;52.334;9.506;2023-09-19T05:47:51;15.50;99.90
22319;DHT22;11327;52.334;9.506;2023-09-19T05:51:13;15.50;99.90
22319;DHT22;11327;52.334;9.506;2023-09-19T05:54:34;15.40;99.90
22319;DHT22;11327;52.334;9.506;2023-09-19T05:57:55;15.40;99.90
22319;DHT22;11327;52.334;9.506;2023-09-19T06:01:16;15.50;99.90
22319;DHT22;11327;52.334;9.506;2023-09-19T06:04:36;15.40;99.90
22319;DHT22;11327;52.334;9.506;2023-09-19T06:07:59;15.50;99.90
22319;DHT22;11327;52.334;9.506;2023-09-19T06:11:21;15.60;99.90
22319;DHT22;11327;52.334;9.506;2023-09-19T06:14:42;15.50;99.90
22319;DHT22;11327;52.334;9.506;2023-09-19T06:18:04;15.60;99.90
22319;DHT22;11327;52.334;9.506;2023-09-19T06:21:26;15.60;99.90
22319;DHT22;11327;52.334;9.506;2023-09-19T06:24:47;15.60;99.90
22319;DHT22;11327;52.334;9.506;2023-09-19T06:28:09;15.70;99.90
22319;DHT22;11327;52.334;9.506;2023-09-19T06:31:32;15.60;99.90
22319;DHT22;11327;52.334;9.506;2023-09-19T06:34:53;15.70;99.90
22319;DHT22;11327;52.334;9.506;2023-09-19T06:38:18;15.70;99.90
22319;DHT22;11327;52.334;9.506;2023-09-19T06:41:39;15.80;99.90
22319;DHT22;11327;52.334;9.506;2023-09-19T06:45:04;15.80;99.90
22319;DHT22;11327;52.334;9.506;2023-09-19T06:48:27;15.80;99.90
22319;DHT22;11327;52.334;9.506;2023-09-19T06:51:49;15.70;99.90
22319;DHT22;11327;52.334;9.506;2023-09-19T06:55:10;15.80;99.90
22319;DHT22;11327;52.334;9.506;2023-09-19T06:58:32;15.90;99.90
22319;DHT22;11327;52.334;9.506;2023-09-19T07:01:53;15.90;99.90
22319;DHT22;11327;52.334;9.506;2023-09-19T07:05:14;15.90;99.90
22319;DHT22;11327;52.334;9.506;2023-09-19T07:08:35;16.00;99.90
22319;DHT22;11327;52.334;9.506;2023-09-19T07:11:56;16.10;99.90
22319;DHT22;11327;52.334;9.506;2023-09-19T07:15:16;16.00;99.90
22319;DHT22;11327;52.334;9.506;2023-09-19T07:18:37;16.10;99.90
22319;DHT22;11327;52.334;9.506;2023-09-19T07:21:58;16.20;99.90
22319;DHT22;11327;52.334;9.506;2023-09-19T07:25:20;16.30;99.90
22319;DHT22;11327;52.334;9.506;2023-09-19T07:28:41;16.20;99.90
22319;DHT22;11327;52.334;9.506;2023-09-19T07:32:02;16.40;99.90
22319;DHT22;11327;52.334;9.506;2023-09-19T07:35:23;16.50;99.90
22319;DHT22;11327;52.334;9.506;2023-09-19T07:38:43;16.50;99.90
22319;DHT22;11327;52.334;9.506;2023-09-19T07:42:06;16.60;99.90
22319;DHT22;11327;52.334;9.506;2023-09-19T07:45:28;16.60;99.90
22319;DHT22;11327;52.334;9.506;2023-09-19T07:48:50;16.60;99.90
22319;DHT22;11327;52.334;9.506;2023-09-19T07:52:11;16.50;99.90
22319;DHT22;11327;52.334;9.506;2023-09-19T07:55:33;16.70;99.90
22319;DHT22;11327;52.334;9.506;2023-09-19T07:58:54;16.50;99.90
22319;DHT22;11327;52.334;9.506;2023-09-19T08:02:15;16.50;99.90
22319;DHT22;11327;52.334;9.506;2023-09-19T08:05:38;16.50;99.90
22319;DHT22;11327;52.334;9.506;2023-09-19T08:09:01;16.60;99.90
22319;DHT22;11327;52.334;9.506;2023-09-19T08:12:24;16.50;99.90
22319;DHT22;11327;52.334;9.506;2023-09-19T08:15:45;16.50;99.90
22319;DHT22;11327;52.334;9.506;2023-09-19T08:19:06;16.60;99.90
22319;DHT22;11327;52.334;9.506;2023-09-19T08:22:27;16.60;99.90
22319;DHT22;11327;52.334;9.506;2023-09-19T08:25:48;16.70;99.90
22319;DHT22;11327;52.334;9.506;2023-09-19T08:29:09;16.80;99.90
22319;DHT22;11327;52.334;9.506;2023-09-19T08:32:31;16.80;99.90
22319;DHT22;11327;52.334;9.506;2023-09-19T08:35:52;16.80;99.90
22319;DHT22;11327;52.334;9.506;2023-09-19T08:39:15;16.80;99.90
22319;DHT22;11327;52.334;9.506;2023-09-19T08:42:50;17.00;99.90
22319;DHT22;11327;52.334;9.506;2023-09-19T08:46:16;17.00;99.90
22319;DHT22;11327;52.334;9.506;2023-09-19T08:49:53;17.10;99.90
22319;DHT22;11327;52.334;9.506;2023-09-19T08:53:20;17.20;99.90
22319;DHT22;11327;52.334;9.506;2023-09-19T08:56:39;17.20;99.90
22319;DHT22;11327;52.334;9.506;2023-09-19T09:00:02;17.20;99.90
22319;DHT22;11327;52.334;9.506;2023-09-19T09:03:25;17.30;99.90
22319;DHT22;11327;52.334;9.506;2023-09-19T09:06:47;17.40;99.90
22319;DHT22;11327;52.334;9.506;2023-09-19T09:10:11;17.40;99.90
22319;DHT22;11327;52.334;9.506;2023-09-19T09:13:32;17.40;99.90
22319;DHT22;11327;52.334;9.506;2023-09-19T09:16:55;17.50;99.90
22319;DHT22;11327;52.334;9.506;2023-09-19T09:20:17;17.50;99.90
22319;DHT22;11327;52.334;9.506;2023-09-19T09:23:39;17.60;99.90
22319;DHT22;11327;52.334;9.506;2023-09-19T09:27:00;17.70;99.90
22319;DHT22;11327;52.334;9.506;2023-09-19T09:30:34;17.70;99.90
22319;DHT22;11327;52.334;9.506;2023-09-19T09:33:56;17.80;99.90
22319;DHT22;11327;52.334;9.506;2023-09-19T09:37:18;17.90;99.90
22319;DHT22;11327;52.334;9.506;2023-09-19T09:40:46;18.00;99.90
22319;DHT22;11327;52.334;9.506;2023-09-19T09:44:17;18.00;99.90
22319;DHT22;11327;52.334;9.506;2023-09-19T09:47:47;18.20;99.90
22319;DHT22;11327;52.334;9.506;2023-09-19T09:51:30;18.20;99.90
22319;DHT22;11327;52.334;9.506;2023-09-19T09:55:01;18.30;99.90
22319;DHT22;11327;52.334;9.506;2023-09-19T09:58:24;18.50;99.90
22319;DHT22;11327;52.334;9.506;2023-09-19T10:01:47;18.50;99.90
22319;DHT22;11327;52.334;9.506;2023-09-19T10:05:17;18.40;99.90
22319;DHT22;11327;52.334;9.506;2023-09-19T10:12:33;18.50;99.90
22319;DHT22;11327;52.334;9.506;2023-09-19T10:15:56;18.40;99.90
22319;DHT22;11327;52.334;9.506;2023-09-19T10:19:30;18.40;99.90
22319;DHT22;11327;52.334;9.506;2023-09-19T10:22:55;18.50;99.90
22319;DHT22;11327;52.334;9.506;2023-09-19T10:26:19;18.40;99.90
22319;DHT22;11327;52.334;9.506;2023-09-19T10:29:44;18.40;99.90
22319;DHT22;11327;52.334;9.506;2023-09-19T10:33:05;18.50;99.90
22319;DHT22;11327;52.334;9.506;2023-09-19T10:36:27;18.70;99.90
22319;DHT22;11327;52.334;9.506;2023-09-19T10:39:50;18.80;99.90
22319;DHT22;11327;52.334;9.506;2023-09-19T10:43:17;18.90;99.90
22319;DHT22;11327;52.334;9.506;2023-09-19T10:46:41;19.00;99.90
22319;DHT22;11327;52.334;9.506;2023-09-19T10:50:02;19.00;99.90
22319;DHT22;11327;52.334;9.506;2023-09-19T10:53:27;19.10;99.90
22319;DHT22;11327;52.334;9.506;2023-09-19T10:56:50;19.20;99.90
22319;DHT22;11327;52.334;9.506;2023-09-19T11:00:13;19.20;99.90
22319;DHT22;11327;52.334;9.506;2023-09-19T11:03:48;19.30;99.90
22319;DHT22;11327;52.334;9.506;2023-09-19T11:07:13;19.30;99.90
22319;DHT22;11327;52.334;9.506;2023-09-19T11:10:48;19.40;99.90
22319;DHT22;11327;52.334;9.506;2023-09-19T11:17:44;19.60;99.90
22319;DHT22;11327;52.334;9.506;2023-09-19T11:24:51;19.60;99.90
22319;DHT22;11327;52.334;9.506;2023-09-19T11:31:45;19.60;99.90
22319;DHT22;11327;52.334;9.506;2023-09-19T11:35:09;19.50;99.90
22319;DHT22;11327;52.334;9.506;2023-09-19T11:46:05;19.50;99.90
22319;DHT22;11327;52.334;9.506;2023-09-19T11:49:28;19.50;99.90
22319;DHT22;11327;52.334;9.506;2023-09-19T11:52:53;19.70;99.90
22319;DHT22;11327;52.334;9.506;2023-09-19T11:56:17;19.70;99.90
22319;DHT22;11327;52.334;9.506;2023-09-19T11:59:38;19.70;99.90
22319;DHT22;11327;52.334;9.506;2023-09-19T12:03:11;19.70;99.90
22319;DHT22;11327;52.334;9.506;2023-09-19T12:06:27;19.50;99.90
22319;DHT22;11327;52.334;9.506;2023-09-19T12:10:02;19.40;99.90
22319;DHT22;11327;52.334;9.506;2023-09-19T12:13:18;19.40;99.90
22319;DHT22;11327;52.334;9.506;2023-09-19T12:16:39;19.40;99.90
22319;DHT22;11327;52.334;9.506;2023-09-19T12:19:59;19.40;99.90
22319;DHT22;11327;52.334;9.506;2023-09-19T12:23:21;19.50;99.90
22319;DHT22;11327;52.334;9.506;2023-09-19T12:26:43;19.40;99.90
22319;DHT22;11327;52.334;9.506;2023-09-19T12:30:07;19.40;99.90
22319;DHT22;11327;52.334;9.506;2023-09-19T12:33:28;19.40;99.90
22319;DHT22;11327;52.334;9.506;2023-09-19T12:40:29;19.40;99.90
22319;DHT22;11327;52.334;9.506;2023-09-19T12:43:53;19.40;99.90
22319;DHT22;11327;52.334;9.506;2023-09-19T12:47:16;19.50;99.90
22319;DHT22;11327;52.334;9.506;2023-09-19T12:50:59;19.50;99.90
22319;DHT22;11327;52.334;9.506;2023-09-19T12:54:20;19.60;99.90
22319;DHT22;11327;52.334;9.506;2023-09-19T12:57:42;19.80;99.90
22319;DHT22;11327;52.334;9.506;2023-09-19T13:01:13;19.70;99.90
22319;DHT22;11327;52.334;9.506;2023-09-19T13:04:29;19.80;99.90
22319;DHT22;11327;52.334;9.506;2023-09-19T13:07:50;19.90;99.90
22319;DHT22;11327;52.334;9.506;2023-09-19T13:11:16;19.90;99.90
22319;DHT22;11327;52.334;9.506;2023-09-19T13:14:38;19.90;99.90
22319;DHT22;11327;52.334;9.506;2023-09-19T13:18:03;20.00;99.90
22319;DHT22;11327;52.334;9.506;2023-09-19T13:21:33;20.10;99.90
22319;DHT22;11327;52.334;9.506;2023-09-19T13:24:56;20.20;99.90
22319;DHT22;11327;52.334;9.506;2023-09-19T13:28:19;20.30;99.90
22319;DHT22;11327;52.334;9.506;2023-09-19T13:31:39;20.30;99.90
22319;DHT22;11327;52.334;9.506;2023-09-19T13:35:02;20.30;99.90
22319;DHT22;11327;52.334;9.506;2023-09-19T13:38:23;20.40;99.90
22319;DHT22;11327;52.334;9.506;2023-09-19T13:41:45;20.50;99.90
22319;DHT22;11327;52.334;9.506;2023-09-19T13:45:07;20.40;99.90
22319;DHT22;11327;52.334;9.506;2023-09-19T13:48:30;20.30;99.90
22319;DHT22;11327;52.334;9.506;2023-09-19T13:51:51;20.30;99.90
22319;DHT22;11327;52.334;9.506;2023-09-19T13:55:11;20.50;99.90
22319;DHT22;11327;52.334;9.506;2023-09-19T13:58:34;20.30;99.90
22319;DHT22;11327;52.334;9.506;2023-09-19T14:01:55;20.30;99.90
22319;DHT22;11327;52.334;9.506;2023-09-19T14:05:18;20.30;99.90
22319;DHT22;11327;52.334;9.506;2023-09-19T14:08:39;20.30;99.90
22319;DHT22;11327;52.334;9.506;2023-09-19T14:12:00;20.30;99.90
22319;DHT22;11327;52.334;9.506;2023-09-19T14:15:20;20.40;99.90
22319;DHT22;11327;52.334;9.506;2023-09-19T14:18:45;20.40;99.90
22319;DHT22;11327;52.334;9.506;2023-09-19T14:22:06;20.40;99.90
22319;DHT22;11327;52.334;9.506;2023-09-19T14:25:28;20.60;99.90
22319;DHT22;11327;52.334;9.506;2023-09-19T14:28:50;20.50;99.90
22319;DHT22;11327;52.334;9.506;2023-09-19T14:32:11;20.50;99.90
22319;DHT22;11327;52.334;9.506;2023-09-19T14:35:33;20.30;99.90
22319;DHT22;11327;52.334;9.506;2023-09-19T14:38:54;20.20;99.90
22319;DHT22;11327;52.334;9.506;2023-09-19T14:42:15;20.00;99.90
22319;DHT22;11327;52.334;9.506;2023-09-19T14:45:38;19.90;99.90
22319;DHT22;11327;52.334;9.506;2023-09-19T14:48:58;19.90;99.90
22319;DHT22;11327;52.334;9.506;2023-09-19T14:52:20;20.00;99.90
22319;DHT22;11327;52.334;9.506;2023-09-19T14:55:41;20.10;99.90
22319;DHT22;11327;52.334;9.506;2023-09-19T14:59:03;20.30;99.90
22319;DHT22;11327;52.334;9.506;2023-09-19T15:02:24;20.40;99.90
22319;DHT22;11327;52.334;9.506;2023-09-19T15:05:45;20.50;99.90
22319;DHT22;11327;52.334;9.506;2023-09-19T15:09:06;20.60;99.90
22319;DHT22;11327;52.334;9.506;2023-09-19T15:12:29;20.60;99.90
22319;DHT22;11327;52.334;9.506;2023-09-19T15:15:49;20.70;99.90
22319;DHT22;11327;52.334;9.506;2023-09-19T15:19:11;20.60;99.90
22319;DHT22;11327;52.334;9.506;2023-09-19T15:22:33;20.40;99.90
22319;DHT22;11327;52.334;9.506;2023-09-19T15:25:55;20.40;99.90
22319;DHT22;11327;52.334;9.506;2023-09-19T15:29:17;20.40;99.90
22319;DHT22;11327;52.334;9.506;2023-09-19T15:32:38;20.40;99.90
22319;DHT22;11327;52.334;9.506;2023-09-19T15:36:11;20.40;99.90
22319;DHT22;11327;52.334;9.506;2023-09-19T15:39:32;20.40;99.90
22319;DHT22;11327;52.334;9.506;2023-09-19T15:42:57;20.30;99.90
22319;DHT22;11327;52.334;9.506;2023-09-19T15:46:19;20.30;99.90
22319;DHT22;11327;52.334;9.506;2023-09-19T15:49:39;20.20;99.90
22319;DHT22;11327;52.334;9.506;2023-09-19T15:53:00;20.10;99.90
22319;DHT22;11327;52.334;9.506;2023-09-19T15:56:22;20.10;99.90
22319;DHT22;11327;52.334;9.506;2023-09-19T15:59:43;19.90;99.90
22319;DHT22;11327;52.334;9.506;2023-09-19T16:03:05;19.90;99.90
22319;DHT22;11327;52.334;9.506;2023-09-19T16:06:30;19.80;99.90
22319;DHT22;11327;52.334;9.506;2023-09-19T16:09:53;19.80;99.90
22319;DHT22;11327;52.334;9.506;2023-09-19T16:13:14;19.70;99.90
22319;DHT22;11327;52.334;9.506;2023-09-19T16:16:35;19.90;99.90
22319;DHT22;11327;52.334;9.506;2023-09-19T16:19:56;19.60;99.90
22319;DHT22;11327;52.334;9.506;2023-09-19T16:23:17;19.60;99.90
22319;DHT22;11327;52.334;9.506;2023-09-19T16:26:38;19.60;99.90
22319;DHT22;11327;52.334;9.506;2023-09-19T16:29:58;19.50;99.90
22319;DHT22;11327;52.334;9.506;2023-09-19T16:33:19;19.50;99.90
22319;DHT22;11327;52.334;9.506;2023-09-19T16:36:40;19.50;99.90
22319;DHT22;11327;52.334;9.506;2023-09-19T16:40:01;19.60;99.90
22319;DHT22;11327;52.334;9.506;2023-09-19T16:43:23;19.60;99.90
22319;DHT22;11327;52.334;9.506;2023-09-19T16:46:43;19.50;99.90
22319;DHT22;11327;52.334;9.506;2023-09-19T16:50:05;19.50;99.90
22319;DHT22;11327;52.334;9.506;2023-09-19T16:53:26;19.50;99.90
22319;DHT22;11327;52.334;9.506;2023-09-19T16:56:47;19.40;99.90
22319;DHT22;11327;52.334;9.506;2023-09-19T17:00:09;19.30;99.90
22319;DHT22;11327;52.334;9.506;2023-09-19T17:03:31;19.20;99.90
22319;DHT22;11327;52.334;9.506;2023-09-19T17:06:53;19.10;99.90
22319;DHT22;11327;52.334;9.506;2023-09-19T17:10:13;19.10;99.90
22319;DHT22;11327;52.334;9.506;2023-09-19T17:13:38;19.10;99.90
22319;DHT22;11327;52.334;9.506;2023-09-19T17:17:01;19.00;99.90
22319;DHT22;11327;52.334;9.506;2023-09-19T17:20:23;18.90;99.90
22319;DHT22;11327;52.334;9.506;2023-09-19T17:23:43;18.90;99.90
22319;DHT22;11327;52.334;9.506;2023-09-19T17:27:04;18.80;99.90
22319;DHT22;11327;52.334;9.506;2023-09-19T17:30:26;18.70;99.90
22319;DHT22;11327;52.334;9.506;2023-09-19T17:33:48;18.70;99.90
22319;DHT22;11327;52.334;9.506;2023-09-19T17:37:09;18.80;99.90
22319;DHT22;11327;52.334;9.506;2023-09-19T17:40:38;18.70;99.90
22319;DHT22;11327;52.334;9.506;2023-09-19T17:43:57;18.80;99.90
22319;DHT22;11327;52.334;9.506;2023-09-19T17:47:18;18.80;99.90
22319;DHT22;11327;52.334;9.506;2023-09-19T17:50:38;18.70;99.90
22319;DHT22;11327;52.334;9.506;2023-09-19T17:53:59;18.70;99.90
22319;DHT22;11327;52.334;9.506;2023-09-19T17:57:21;18.60;99.90
22319;DHT22;11327;52.334;9.506;2023-09-19T18:00:43;18.70;99.90
22319;DHT22;11327;52.334;9.506;2023-09-19T18:04:05;18.70;99.90
22319;DHT22;11327;52.334;9.506;2023-09-19T18:07:26;18.60;99.90
22319;DHT22;11327;52.334;9.506;2023-09-19T18:10:48;18.60;99.90
22319;DHT22;11327;52.334;9.506;2023-09-19T18:14:09;18.60;99.90
22319;DHT22;11327;52.334;9.506;2023-09-19T18:17:30;18.60;99.90
22319;DHT22;11327;52.334;9.506;2023-09-19T18:20:51;18.60;99.90
22319;DHT22;11327;52.334;9.506;2023-09-19T18:24:11;18.60;99.90
22319;DHT22;11327;52.334;9.506;2023-09-19T18:27:34;18.60;99.90
22319;DHT22;11327;52.334;9.506;2023-09-19T18:30:55;18.60;99.90
22319;DHT22;11327;52.334;9.506;2023-09-19T18:34:17;18.60;99.90
22319;DHT22;11327;52.334;9.506;2023-09-19T18:37:37;18.60;99.90
22319;DHT22;11327;52.334;9.506;2023-09-19T18:40:58;18.50;99.90
22319;DHT22;11327;52.334;9.506;2023-09-19T18:44:19;18.50;99.90
22319;DHT22;11327;52.334;9.506;2023-09-19T18:47:40;18.50;99.90
22319;DHT22;11327;52.334;9.506;2023-09-19T18:51:07;18.50;99.90
22319;DHT22;11327;52.334;9.506;2023-09-19T18:54:28;18.40;99.90
22319;DHT22;11327;52.334;9.506;2023-09-19T18:57:51;18.40;99.90
22319;DHT22;11327;52.334;9.506;2023-09-19T19:01:12;18.40;99.90
22319;DHT22;11327;52.334;9.506;2023-09-19T19:04:35;18.40;99.90
22319;DHT22;11327;52.334;9.506;2023-09-19T19:08:00;18.40;99.90
22319;DHT22;11327;52.334;9.506;2023-09-19T19:11:21;18.40;99.90
22319;DHT22;11327;52.334;9.506;2023-09-19T19:14:43;18.30;99.90
22319;DHT22;11327;52.334;9.506;2023-09-19T19:18:04;18.30;99.90
22319;DHT22;11327;52.334;9.506;2023-09-19T19:21:25;18.40;99.90
22319;DHT22;11327;52.334;9.506;2023-09-19T19:24:46;18.30;99.90
22319;DHT22;11327;52.334;9.506;2023-09-19T19:28:07;18.40;99.90
22319;DHT22;11327;52.334;9.506;2023-09-19T19:31:29;18.30;99.90
22319;DHT22;11327;52.334;9.506;2023-09-19T19:34:50;18.30;99.90
22319;DHT22;11327;52.334;9.506;2023-09-19T19:38:11;18.30;99.90
22319;DHT22;11327;52.334;9.506;2023-09-19T19:41:34;18.30;99.90
22319;DHT22;11327;52.334;9.506;2023-09-19T19:44:57;18.30;99.90
22319;DHT22;11327;52.334;9.506;2023-09-19T19:48:19;18.30;99.90
22319;DHT22;11327;52.334;9.506;2023-09-19T19:51:40;18.30;99.90
22319;DHT22;11327;52.334;9.506;2023-09-19T19:55:02;18.30;99.90
22319;DHT22;11327;52.334;9.506;2023-09-19T19:58:23;18.40;99.90
22319;DHT22;11327;52.334;9.506;2023-09-19T20:01:45;18.30;99.90
22319;DHT22;11327;52.334;9.506;2023-09-19T20:05:07;18.40;99.90
22319;DHT22;11327;52.334;9.506;2023-09-19T20:08:28;18.40;99.90
22319;DHT22;11327;52.334;9.506;2023-09-19T20:11:48;18.30;99.90
22319;DHT22;11327;52.334;9.506;2023-09-19T20:15:10;18.30;99.90
22319;DHT22;11327;52.334;9.506;2023-09-19T20:18:30;18.30;99.90
22319;DHT22;11327;52.334;9.506;2023-09-19T20:21:52;18.40;99.90
22319;DHT22;11327;52.334;9.506;2023-09-19T20:25:15;18.40;99.90
22319;DHT22;11327;52.334;9.506;2023-09-19T20:28:37;18.40;99.90
22319;DHT22;11327;52.334;9.506;2023-09-19T20:31:59;18.40;99.90
22319;DHT22;11327;52.334;9.506;2023-09-19T20:35:20;18.40;99.90
22319;DHT22;11327;52.334;9.506;2023-09-19T20:38:42;18.40;99.90
22319;DHT22;11327;52.334;9.506;2023-09-19T20:42:04;18.40;99.90
22319;DHT22;11327;52.334;9.506;2023-09-19T20:45:24;18.40;99.90
22319;DHT22;11327;52.334;9.506;2023-09-19T20:48:45;18.40;99.90
22319;DHT22;11327;52.334;9.506;2023-09-19T20:52:08;18.40;99.90
22319;DHT22;11327;52.334;9.506;2023-09-19T20:55:29;18.40;99.90
22319;DHT22;11327;52.334;9.506;2023-09-19T20:58:50;18.40;99.90
22319;DHT22;11327;52.334;9.506;2023-09-19T21:02:11;18.40;99.90
22319;DHT22;11327;52.334;9.506;2023-09-19T21:05:31;18.30;99.90
22319;DHT22;11327;52.334;9.506;2023-09-19T21:08:52;18.30;99.90
22319;DHT22;11327;52.334;9.506;2023-09-19T21:12:13;18.30;99.90
22319;DHT22;11327;52.334;9.506;2023-09-19T21:15:40;18.30;99.90
22319;DHT22;11327;52.334;9.506;2023-09-19T21:18:59;18.20;99.90
22319;DHT22;11327;52.334;9.506;2023-09-19T21:22:22;18.30;99.90
22319;DHT22;11327;52.334;9.506;2023-09-19T21:25:42;18.30;99.90
22319;DHT22;11327;52.334;9.506;2023-09-19T21:29:03;18.20;99.90
22319;DHT22;11327;52.334;9.506;2023-09-19T21:32:24;18.10;99.90
22319;DHT22;11327;52.334;9.506;2023-09-19T21:35:44;18.10;99.90
22319;DHT22;11327;52.334;9.506;2023-09-19T21:39:06;18.20;99.90
22319;DHT22;11327;52.334;9.506;2023-09-19T21:42:27;18.20;99.90
22319;DHT22;11327;52.334;9.506;2023-09-19T21:45:48;18.20;99.90
22319;DHT22;11327;52.334;9.506;2023-09-19T21:49:08;18.20;99.90
22319;DHT22;11327;52.334;9.506;2023-09-19T21:52:29;18.20;99.90
22319;DHT22;11327;52.334;9.506;2023-09-19T21:55:50;18.20;99.90
22319;DHT22;11327;52.334;9.506;2023-09-19T21:59:11;18.10;99.90